createdAt,value
2022-08-23T00:01:22.344Z,18.44
2022-08-23T00:03:55.177Z,18.44
2022-08-23T00:06:24.180Z,18.46
2022-08-23T00:08:53.649Z,18.44
2022-08-23T00:11:30.966Z,18.45
2022-08-23T00:14:00.628Z,18.44
2022-08-23T00:16:29.271Z,18.43
2022-08-23T00:18:59.415Z,18.41
2022-08-23T00:21:29.238Z,18.40
2022-08-23T00:23:57.888Z,18.40
2022-08-23T00:26:26.570Z,18.38
2022-08-23T00:28:54.875Z,18.37
2022-08-23T00:31:22.836Z,18.32
2022-08-23T00:33:50.766Z,18.25
2022-08-23T00:36:20.137Z,18.16
2022-08-23T00:38:48.061Z,18.12
2022-08-23T00:41:16.060Z,18.11
2022-08-23T00:44:01.406Z,18.08
2022-08-23T00:47:00.595Z,18.07
2022-08-23T00:49:32.346Z,18.03
2022-08-23T00:52:07.726Z,17.99
2022-08-23T00:54:38.949Z,17.96
2022-08-23T00:57:12.857Z,17.92
2022-08-23T00:59:41.483Z,17.88
2022-08-23T01:02:10.832Z,17.81
2022-08-23T01:04:41.224Z,17.76
2022-08-23T01:07:16.956Z,17.70
2022-08-23T01:09:47.725Z,17.67
2022-08-23T01:12:32.254Z,17.62
2022-08-23T01:15:06.715Z,17.58
2022-08-23T01:17:41.714Z,17.55
2022-08-23T01:20:16.992Z,17.53
2022-08-23T01:22:53.815Z,17.52
2022-08-23T01:25:25.005Z,17.50
2022-08-23T01:27:53.294Z,17.51
2022-08-23T01:30:23.858Z,17.53
2022-08-23T01:32:56.193Z,17.60
2022-08-23T01:35:32.136Z,17.66
2022-08-23T01:38:00.171Z,17.71
2022-08-23T01:40:30.162Z,17.74
2022-08-23T01:42:58.293Z,17.78
2022-08-23T01:45:26.343Z,17.82
2022-08-23T01:47:54.444Z,17.85
2022-08-23T01:50:22.670Z,17.89
2022-08-23T01:52:50.797Z,17.91
2022-08-23T01:55:19.699Z,17.92
2022-08-23T01:57:51.828Z,17.93
2022-08-23T02:00:21.363Z,17.93
2022-08-23T02:02:49.595Z,17.92
2022-08-23T02:05:19.221Z,17.93
2022-08-23T02:07:49.838Z,17.92
2022-08-23T02:10:18.602Z,17.93
2022-08-23T02:12:48.256Z,17.93
2022-08-23T02:15:17.423Z,17.94
2022-08-23T02:17:46.614Z,17.96
2022-08-23T02:20:14.953Z,17.97
2022-08-23T02:22:43.286Z,17.99
2022-08-23T02:25:11.465Z,17.99
2022-08-23T02:27:43.882Z,18.01
2022-08-23T02:30:17.019Z,18.01
2022-08-23T02:32:45.032Z,18.02
2022-08-23T02:35:15.742Z,18.01
2022-08-23T02:37:44.899Z,18.02
2022-08-23T02:40:13.296Z,18.02
2022-08-23T02:42:42.203Z,18.03
2022-08-23T02:45:11.377Z,18.03
2022-08-23T02:47:40.837Z,18.03
2022-08-23T02:50:09.987Z,18.04
2022-08-23T02:52:37.979Z,18.04
2022-08-23T02:55:07.647Z,18.03
2022-08-23T02:57:35.629Z,18.03
2022-08-23T03:00:05.254Z,18.02
2022-08-23T03:02:33.312Z,18.01
2022-08-23T03:05:02.738Z,18.01
2022-08-23T03:07:31.182Z,18.02
2022-08-23T03:10:02.411Z,18.02
2022-08-23T03:12:31.010Z,18.02
2022-08-23T03:14:59.116Z,17.99
2022-08-23T03:17:27.624Z,17.97
2022-08-23T03:19:55.598Z,17.94
2022-08-23T03:22:24.989Z,17.90
2022-08-23T03:24:53.088Z,17.88
2022-08-23T03:27:21.065Z,17.84
2022-08-23T03:29:49.029Z,17.82
2022-08-23T03:32:17.333Z,17.84
2022-08-23T03:34:45.341Z,17.84
2022-08-23T03:37:13.395Z,17.84
2022-08-23T03:39:42.969Z,17.84
2022-08-23T03:42:11.512Z,17.84
2022-08-23T03:44:39.764Z,17.84
2022-08-23T03:47:07.833Z,17.82
2022-08-23T03:49:35.802Z,17.80
2022-08-23T03:52:04.315Z,17.79
2022-08-23T03:54:32.598Z,17.80
2022-08-23T03:57:04.577Z,17.80
2022-08-23T03:59:34.993Z,17.81
2022-08-23T04:02:03.089Z,17.80
2022-08-23T04:04:31.170Z,17.79
2022-08-23T04:06:59.137Z,17.78
2022-08-23T04:09:30.061Z,17.75
2022-08-23T04:11:58.102Z,17.75
2022-08-23T04:14:27.508Z,17.73
2022-08-23T04:16:55.817Z,17.73
2022-08-23T04:19:24.369Z,17.72
2022-08-23T04:21:53.964Z,17.73
2022-08-23T04:24:21.928Z,17.74
2022-08-23T04:26:51.162Z,17.73
2022-08-23T04:29:34.269Z,17.74
2022-08-23T04:32:05.500Z,17.75
2022-08-23T04:34:36.363Z,17.76
2022-08-23T04:37:04.369Z,17.77
2022-08-23T04:39:57.888Z,17.77
2022-08-23T04:42:25.957Z,17.78
2022-08-23T04:44:53.909Z,17.78
2022-08-23T04:47:23.892Z,17.78
2022-08-23T04:49:51.859Z,17.75
2022-08-23T04:52:19.867Z,17.74
2022-08-23T04:54:47.898Z,17.74
2022-08-23T04:57:16.897Z,17.75
2022-08-23T04:59:44.969Z,17.75
2022-08-23T05:02:15.797Z,17.76
2022-08-23T05:04:45.073Z,17.75
2022-08-23T05:07:13.178Z,17.77
2022-08-23T05:09:41.077Z,17.78
2022-08-23T05:12:09.442Z,17.79
2022-08-23T05:14:37.406Z,17.80
2022-08-23T05:17:05.875Z,17.80
2022-08-23T05:19:33.859Z,17.82
2022-08-23T05:22:03.916Z,17.83
2022-08-23T05:24:32.144Z,17.83
2022-08-23T05:27:00.157Z,17.83
2022-08-23T05:29:28.273Z,17.84
2022-08-23T05:31:57.224Z,17.85
2022-08-23T05:34:25.586Z,17.87
2022-08-23T05:36:55.461Z,17.89
2022-08-23T05:39:35.972Z,17.90
2022-08-23T05:42:05.612Z,17.92
2022-08-23T05:44:36.370Z,17.92
2022-08-23T05:47:11.121Z,17.90
2022-08-23T05:49:40.409Z,17.92
2022-08-23T05:52:11.831Z,17.92
2022-08-23T05:54:41.282Z,17.93
2022-08-23T05:57:10.571Z,17.96
2022-08-23T05:59:38.627Z,17.97
2022-08-23T06:02:09.503Z,17.98
2022-08-23T06:04:37.694Z,18.00
2022-08-23T06:07:06.681Z,18.03
2022-08-23T06:09:34.628Z,18.06
2022-08-23T06:12:04.713Z,18.08
2022-08-23T06:14:32.762Z,18.12
2022-08-23T06:17:00.891Z,18.16
2022-08-23T06:19:28.828Z,18.18
2022-08-23T06:21:56.836Z,18.22
2022-08-23T06:24:24.819Z,18.27
2022-08-23T06:26:52.764Z,18.30
2022-08-23T06:29:22.873Z,18.32
2022-08-23T06:31:52.748Z,18.33
2022-08-23T06:34:23.119Z,18.33
2022-08-23T06:36:53.608Z,18.34
2022-08-23T06:39:23.317Z,18.34
2022-08-23T06:41:51.423Z,18.36
2022-08-23T06:44:21.507Z,18.37
2022-08-23T06:46:49.566Z,18.39
2022-08-23T06:49:17.884Z,18.40
2022-08-23T06:51:49.576Z,18.42
2022-08-23T06:54:22.019Z,18.47
2022-08-23T06:56:50.917Z,18.57
2022-08-23T06:59:21.493Z,18.67
2022-08-23T07:01:53.667Z,18.79
2022-08-23T07:04:24.555Z,18.90
2022-08-23T07:06:52.830Z,19.04
2022-08-23T07:09:20.913Z,19.17
2022-08-23T07:11:49.328Z,19.24
2022-08-23T07:14:20.113Z,19.28
2022-08-23T07:16:51.731Z,19.30
2022-08-23T07:19:21.453Z,19.30
2022-08-23T07:21:50.999Z,19.31
2022-08-23T07:24:19.790Z,19.36
2022-08-23T07:26:49.680Z,19.40
2022-08-23T07:29:18.592Z,19.45
2022-08-23T07:31:50.683Z,19.51
2022-08-23T07:34:19.458Z,19.60
2022-08-23T07:36:49.051Z,19.70
2022-08-23T07:39:18.906Z,19.81
2022-08-23T07:41:47.396Z,19.88
2022-08-23T07:44:18.254Z,19.93
2022-08-23T07:46:47.818Z,19.99
2022-08-23T07:49:17.842Z,20.08
2022-08-23T07:51:48.971Z,20.12
2022-08-23T07:54:18.216Z,20.10
2022-08-23T07:56:46.803Z,20.09
2022-08-23T07:59:15.000Z,20.10
2022-08-23T08:01:45.057Z,20.13
2022-08-23T08:04:13.629Z,20.18
2022-08-23T08:06:46.377Z,20.24
2022-08-23T08:09:16.072Z,20.22
2022-08-23T08:11:47.416Z,20.23
2022-08-23T08:14:18.483Z,20.17
2022-08-23T08:16:48.735Z,20.15
2022-08-23T08:19:19.863Z,20.18
2022-08-23T08:21:49.458Z,20.24
2022-08-23T08:24:18.508Z,20.24
2022-08-23T08:26:47.408Z,20.33
2022-08-23T08:29:15.967Z,20.38
2022-08-23T08:31:46.713Z,20.55
2022-08-23T08:34:15.266Z,20.68
2022-08-23T08:36:45.473Z,20.73
2022-08-23T08:39:18.805Z,20.86
2022-08-23T08:42:00.341Z,21.02
2022-08-23T08:44:46.180Z,21.18
2022-08-23T08:47:20.735Z,21.25
2022-08-23T08:49:58.206Z,21.23
2022-08-23T08:52:31.080Z,21.26
2022-08-23T08:55:06.849Z,21.36
2022-08-23T08:57:41.590Z,21.29
2022-08-23T09:00:13.924Z,21.24
2022-08-23T09:02:45.114Z,21.27
2022-08-23T09:05:15.784Z,21.29
2022-08-23T09:07:51.920Z,21.39
2022-08-23T09:10:54.421Z,21.41
2022-08-23T09:13:59.581Z,21.24
2022-08-23T09:16:39.384Z,21.15
2022-08-23T09:19:07.730Z,21.02
2022-08-23T09:21:44.721Z,21.07
2022-08-23T09:24:13.461Z,21.10
2022-08-23T09:26:43.692Z,21.08
2022-08-23T09:29:20.120Z,21.19
2022-08-23T09:31:52.527Z,21.17
2022-08-23T09:34:23.378Z,21.20
2022-08-23T09:36:52.413Z,21.25
2022-08-23T09:39:31.184Z,21.29
2022-08-23T09:42:01.203Z,21.40
2022-08-23T09:44:36.922Z,21.44
2022-08-23T09:47:11.866Z,21.36
2022-08-23T09:49:41.359Z,21.39
2022-08-23T09:52:22.755Z,21.33
2022-08-23T09:55:03.057Z,21.28
2022-08-23T09:57:34.366Z,21.27
2022-08-23T10:00:18.655Z,21.36
2022-08-23T10:02:46.577Z,21.59
2022-08-23T10:05:19.915Z,21.73
2022-08-23T10:07:57.187Z,21.81
2022-08-23T10:10:32.641Z,21.84
2022-08-23T10:13:03.234Z,21.90
2022-08-23T10:15:49.364Z,21.93
2022-08-23T10:18:27.628Z,22.08
2022-08-23T10:21:01.815Z,22.18
2022-08-23T10:23:43.149Z,22.24
2022-08-23T10:26:20.824Z,22.27
2022-08-23T10:29:13.815Z,22.30
2022-08-23T10:31:47.326Z,22.34
2022-08-23T10:34:30.050Z,22.37
2022-08-23T10:37:15.756Z,22.44
2022-08-23T10:39:50.046Z,22.49
2022-08-23T10:42:31.788Z,22.52
2022-08-23T10:45:10.878Z,22.56
2022-08-23T10:47:46.675Z,22.58
2022-08-23T10:50:20.834Z,22.54
2022-08-23T10:52:55.501Z,22.49
2022-08-23T10:55:39.230Z,22.47
2022-08-23T10:58:13.259Z,22.55
2022-08-23T11:00:43.803Z,22.48
2022-08-23T11:03:26.898Z,22.43
2022-08-23T11:06:26.544Z,22.46
2022-08-23T11:09:04.907Z,22.47
2022-08-23T11:11:40.626Z,22.55
2022-08-23T11:14:10.836Z,22.56
2022-08-23T11:16:43.138Z,22.61
2022-08-23T11:19:35.314Z,22.72
2022-08-23T11:22:15.673Z,22.72
2022-08-23T11:24:55.753Z,22.89
2022-08-23T11:27:39.352Z,23.06
2022-08-23T11:30:46.508Z,23.19
2022-08-23T11:33:24.013Z,23.47
2022-08-23T11:35:54.906Z,23.53
2022-08-23T11:39:04.989Z,23.60
2022-08-23T11:41:34.548Z,23.70
2022-08-23T11:44:24.337Z,23.63
2022-08-23T11:47:04.547Z,23.52
2022-08-23T11:50:12.038Z,23.40
2022-08-23T11:52:57.026Z,23.35
2022-08-23T11:55:46.444Z,23.39
2022-08-23T11:58:24.403Z,23.42
2022-08-23T12:01:06.442Z,23.35
2022-08-23T12:03:37.793Z,23.30
2022-08-23T12:06:12.808Z,23.25
2022-08-23T12:09:02.464Z,23.28
2022-08-23T12:12:02.256Z,23.30
2022-08-23T12:14:37.444Z,23.34
2022-08-23T12:17:27.604Z,23.34
2022-08-23T12:20:01.546Z,23.34
2022-08-23T12:22:35.443Z,23.45
2022-08-23T12:25:06.110Z,23.63
2022-08-23T12:27:37.647Z,23.73
2022-08-23T12:30:10.865Z,23.82
2022-08-23T12:32:45.602Z,23.92
2022-08-23T12:35:32.983Z,23.85
2022-08-23T12:38:08.787Z,24.07
2022-08-23T12:40:42.101Z,24.19
2022-08-23T12:43:21.238Z,24.12
2022-08-23T12:45:54.072Z,24.06
2022-08-23T12:48:25.488Z,24.04
2022-08-23T12:50:57.134Z,23.98
2022-08-23T12:53:33.215Z,23.87
2022-08-23T12:56:03.679Z,23.81
2022-08-23T12:58:35.328Z,23.89
2022-08-23T13:01:08.317Z,23.99
2022-08-23T13:03:40.580Z,24.02
2022-08-23T13:06:12.216Z,24.16
2022-08-23T13:08:45.096Z,24.26
2022-08-23T13:11:16.042Z,24.37
2022-08-23T13:13:45.432Z,24.43
2022-08-23T13:16:28.927Z,24.45
2022-08-23T13:19:11.132Z,24.41
2022-08-23T13:21:40.220Z,24.32
2022-08-23T13:24:37.778Z,24.28
2022-08-23T13:27:22.071Z,24.22
2022-08-23T13:29:54.720Z,24.19
2022-08-23T13:32:38.308Z,24.21
2022-08-23T13:35:38.802Z,24.23
2022-08-23T13:38:22.011Z,24.26
2022-08-23T13:41:02.078Z,24.23
2022-08-23T13:43:35.007Z,24.13
2022-08-23T13:46:13.906Z,23.95
2022-08-23T13:48:48.860Z,23.90
2022-08-23T13:51:31.279Z,23.86
2022-08-23T13:54:02.200Z,23.78
2022-08-23T13:56:35.894Z,23.66
2022-08-23T13:59:19.649Z,23.70
2022-08-23T14:01:47.717Z,23.63
2022-08-23T14:04:16.020Z,23.65
2022-08-23T14:06:44.080Z,23.70
2022-08-23T14:09:17.224Z,23.70
2022-08-23T14:11:48.903Z,23.62
2022-08-23T14:14:17.089Z,23.49
2022-08-23T14:16:45.202Z,23.33
2022-08-23T14:19:16.449Z,23.33
2022-08-23T14:21:47.200Z,23.41
2022-08-23T14:24:15.278Z,23.42
2022-08-23T14:26:51.883Z,23.55
2022-08-23T14:29:22.835Z,23.59
2022-08-23T14:31:52.049Z,23.60
2022-08-23T14:34:20.735Z,23.57
2022-08-23T14:39:37.203Z,23.93
2022-08-23T14:42:06.379Z,24.07
2022-08-23T14:44:36.514Z,24.19
2022-08-23T14:47:05.786Z,24.35
2022-08-23T14:49:34.120Z,24.44
2022-08-23T14:52:02.624Z,24.56
2022-08-23T14:54:30.826Z,24.53
2022-08-23T14:56:59.005Z,24.65
2022-08-23T14:59:27.105Z,24.66
2022-08-23T15:01:57.796Z,24.58
2022-08-23T15:04:30.382Z,24.66
2022-08-23T15:07:19.578Z,24.68
2022-08-23T15:09:48.630Z,24.89
2022-08-23T15:15:06.303Z,24.70
2022-08-23T15:17:39.170Z,24.39
2022-08-23T15:20:08.109Z,24.08
2022-08-23T15:22:39.952Z,23.89
2022-08-23T15:25:13.587Z,23.70
2022-08-23T15:27:42.337Z,23.52
2022-08-23T15:30:11.934Z,23.41
2022-08-23T15:32:41.544Z,23.34
2022-08-23T15:35:20.626Z,23.27
2022-08-23T15:37:50.161Z,23.09
2022-08-23T15:40:18.453Z,23.00
2022-08-23T15:42:46.556Z,22.90
2022-08-23T15:45:14.581Z,22.76
2022-08-23T15:47:49.350Z,22.65
2022-08-23T15:50:20.073Z,22.66
2022-08-23T15:52:48.104Z,22.65
2022-08-23T15:55:16.742Z,22.62
2022-08-23T15:57:50.071Z,22.63
2022-08-23T16:00:20.708Z,22.56
2022-08-23T16:03:20.217Z,22.42
2022-08-23T16:05:41.127Z,22.32
2022-08-23T16:08:14.293Z,22.25
2022-08-23T16:10:42.405Z,22.27
2022-08-23T16:13:10.473Z,22.31
2022-08-23T16:15:39.855Z,22.31
2022-08-23T16:18:09.720Z,22.42
2022-08-23T16:20:38.921Z,22.45
2022-08-23T16:23:07.223Z,22.40
2022-08-23T16:25:35.679Z,22.23
2022-08-23T16:28:04.936Z,22.08
2022-08-23T16:30:32.938Z,21.99
2022-08-23T16:33:01.280Z,21.89
2022-08-23T16:35:30.808Z,21.80
2022-08-23T16:37:58.846Z,21.73
2022-08-23T16:40:27.020Z,21.71
2022-08-23T16:42:56.394Z,21.74
2022-08-23T16:45:25.204Z,21.85
2022-08-23T16:47:54.716Z,21.98
2022-08-23T16:50:22.808Z,22.13
2022-08-23T16:52:52.354Z,22.31
2022-08-23T16:55:20.630Z,22.49
2022-08-23T16:57:48.729Z,22.74
2022-08-23T17:00:17.432Z,23.02
2022-08-23T17:02:46.172Z,23.34
2022-08-23T17:05:16.601Z,23.49
2022-08-23T17:07:44.713Z,23.46
2022-08-23T17:10:16.018Z,23.36
2022-08-23T17:12:47.076Z,23.16
2022-08-23T17:15:20.679Z,22.95
2022-08-23T17:17:49.045Z,22.77
2022-08-23T17:20:18.204Z,22.64
2022-08-23T17:22:47.114Z,22.47
2022-08-23T17:25:17.856Z,22.41
2022-08-23T17:27:47.684Z,22.31
2022-08-23T17:30:19.071Z,22.18
2022-08-23T17:32:48.879Z,22.11
2022-08-23T17:35:18.608Z,22.03
2022-08-23T17:37:47.239Z,22.00
2022-08-23T17:40:19.869Z,22.07
2022-08-23T17:42:50.000Z,22.13
2022-08-23T17:45:18.649Z,22.16
2022-08-23T17:47:46.820Z,22.17
2022-08-23T17:50:15.531Z,22.16
2022-08-23T17:52:45.123Z,22.20
2022-08-23T17:55:16.971Z,22.20
2022-08-23T17:57:49.275Z,22.17
2022-08-23T18:00:19.787Z,22.16
2022-08-23T18:02:47.889Z,22.11
2022-08-23T18:05:16.946Z,22.02
2022-08-23T18:07:45.185Z,21.94
2022-08-23T18:10:14.323Z,21.90
2022-08-23T18:12:43.368Z,21.89
2022-08-23T18:15:13.326Z,21.86
2022-08-23T18:17:41.962Z,21.82
2022-08-23T18:20:12.582Z,21.80
2022-08-23T18:22:41.404Z,21.77
2022-08-23T18:25:13.436Z,21.73
2022-08-23T18:27:59.112Z,21.69
2022-08-23T18:30:28.991Z,21.63
2022-08-23T18:32:57.695Z,21.59
2022-08-23T18:35:29.335Z,21.53
2022-08-23T18:37:57.904Z,21.47
2022-08-23T18:40:27.338Z,21.42
2022-08-23T18:42:56.214Z,21.37
2022-08-23T18:45:24.689Z,21.31
2022-08-23T18:47:54.403Z,21.28
2022-08-23T18:50:22.673Z,21.21
2022-08-23T18:52:50.663Z,21.18
2022-08-23T18:55:20.277Z,21.13
2022-08-23T18:57:48.482Z,21.10
2022-08-23T19:00:16.882Z,21.05
2022-08-23T19:02:45.181Z,20.96
2022-08-23T19:05:14.770Z,20.89
2022-08-23T19:07:42.952Z,20.86
2022-08-23T19:10:11.740Z,20.82
2022-08-23T19:12:39.745Z,20.77
2022-08-23T19:15:20.245Z,20.75
2022-08-23T19:17:48.780Z,20.75
2022-08-23T19:20:19.291Z,20.75
2022-08-23T19:22:47.478Z,20.76
2022-08-23T19:25:15.555Z,20.77
2022-08-23T19:27:43.625Z,20.78
2022-08-23T19:30:13.012Z,20.79
2022-08-23T19:32:46.314Z,20.79
2022-08-23T19:35:14.603Z,20.81
2022-08-23T19:37:44.034Z,20.82
2022-08-23T19:40:14.440Z,20.84
2022-08-23T19:42:42.535Z,20.86
2022-08-23T19:45:11.654Z,20.86
2022-08-23T19:47:40.763Z,20.87
2022-08-23T19:50:09.943Z,20.88
2022-08-23T19:52:38.764Z,20.90
2022-08-23T19:55:09.294Z,20.92
2022-08-23T19:57:38.359Z,20.93
2022-08-23T20:00:17.054Z,20.94
2022-08-23T20:02:47.432Z,20.94
2022-08-23T20:05:15.820Z,20.94
2022-08-23T20:07:44.333Z,20.95
2022-08-23T20:10:15.840Z,20.94
2022-08-23T20:12:43.918Z,20.95
2022-08-23T20:15:13.552Z,20.96
2022-08-23T20:17:42.041Z,20.97
2022-08-23T20:20:13.789Z,20.97
2022-08-23T20:23:00.116Z,20.98
2022-08-23T20:25:30.793Z,20.96
2022-08-23T20:27:59.419Z,20.95
2022-08-23T20:30:27.502Z,20.96
2022-08-23T20:32:55.612Z,20.96
2022-08-23T20:35:23.768Z,20.96
2022-08-23T20:37:51.917Z,20.97
2022-08-23T20:40:20.536Z,20.98
2022-08-23T20:42:51.844Z,20.99
2022-08-23T20:45:20.167Z,20.98
2022-08-23T20:47:48.405Z,20.98
2022-08-23T20:50:16.442Z,20.99
2022-08-23T20:52:44.405Z,20.99
2022-08-23T20:55:14.970Z,20.97
2022-08-23T20:57:43.038Z,20.97
2022-08-23T21:00:13.955Z,20.93
2022-08-23T21:02:42.040Z,20.92
2022-08-23T21:05:10.681Z,20.90
2022-08-23T21:07:38.652Z,20.89
2022-08-23T21:10:07.698Z,20.89
2022-08-23T21:12:36.072Z,20.88
2022-08-23T21:15:06.883Z,20.88
2022-08-23T21:17:39.705Z,20.87
2022-08-23T21:20:08.481Z,20.87
2022-08-23T21:22:36.555Z,20.87
2022-08-23T21:25:05.093Z,20.86
2022-08-23T21:27:33.232Z,20.85
2022-08-23T21:30:01.356Z,20.84
2022-08-23T21:32:29.367Z,20.84
2022-08-23T21:34:59.219Z,20.85
2022-08-23T21:37:28.319Z,20.85
2022-08-23T21:39:56.675Z,20.85
2022-08-23T21:42:25.083Z,20.85
2022-08-23T21:44:53.672Z,20.86
2022-08-23T21:47:21.690Z,20.84
2022-08-23T21:49:49.727Z,20.83
2022-08-23T21:52:19.105Z,20.82
2022-08-23T21:54:47.063Z,20.80
2022-08-23T21:57:15.283Z,20.79
2022-08-23T21:59:43.644Z,20.79
2022-08-23T22:02:11.754Z,20.79
2022-08-23T22:04:40.212Z,20.78
2022-08-23T22:07:08.671Z,20.78
2022-08-23T22:09:38.223Z,20.77
2022-08-23T22:12:07.621Z,20.77
2022-08-23T22:14:35.831Z,20.76
2022-08-23T22:17:04.304Z,20.75
2022-08-23T22:19:32.425Z,20.75
2022-08-23T22:22:01.093Z,20.75
2022-08-23T22:24:29.135Z,20.75
2022-08-23T22:26:58.696Z,20.76
2022-08-23T22:29:26.705Z,20.76
2022-08-23T22:31:56.402Z,20.74
2022-08-23T22:34:27.603Z,20.75
2022-08-23T22:36:55.861Z,20.74
2022-08-23T22:39:24.749Z,20.73
2022-08-23T22:41:52.798Z,20.73
2022-08-23T22:44:22.360Z,20.72
2022-08-23T22:46:50.382Z,20.72
2022-08-23T22:49:18.452Z,20.71
2022-08-23T22:51:46.590Z,20.70
2022-08-23T22:54:17.833Z,20.70
2022-08-23T22:56:48.386Z,20.69
2022-08-23T22:59:17.675Z,20.68
2022-08-23T23:01:50.500Z,20.66
2022-08-23T23:04:20.830Z,20.64
2022-08-23T23:06:49.300Z,20.62
2022-08-23T23:09:18.005Z,20.62
2022-08-23T23:11:46.831Z,20.61
2022-08-23T23:14:16.608Z,20.59
2022-08-23T23:16:45.319Z,20.59
2022-08-23T23:19:32.204Z,20.59
2022-08-23T23:22:01.438Z,20.59
2022-08-23T23:24:31.773Z,20.58
2022-08-23T23:27:00.355Z,20.57
2022-08-23T23:29:28.682Z,20.58
2022-08-23T23:31:57.828Z,20.58
2022-08-23T23:34:28.001Z,20.57
2022-08-23T23:36:57.215Z,20.57
2022-08-23T23:39:25.824Z,20.56
2022-08-23T23:41:54.794Z,20.55
2022-08-23T23:44:29.935Z,20.55
2022-08-23T23:47:01.083Z,20.55
2022-08-23T23:49:32.506Z,20.52
2022-08-23T23:52:02.471Z,20.51
2022-08-23T23:54:30.493Z,20.53
2022-08-23T23:56:58.650Z,20.53
2022-08-23T23:59:27.149Z,20.51
